sensor_id;sensor_type;location;lat;lon;timestamp;temperature;humidity
30949;HTU21D;17637;51.984;21.208;2022-07-21T00:01:23;18.83;8.27
30949;HTU21D;17637;51.984;21.208;2022-07-21T00:06:26;18.64;8.56
30949;HTU21D;17637;51.984;21.208;2022-07-21T00:11:29;18.68;8.53
30949;HTU21D;17637;51.984;21.208;2022-07-21T00:16:35;18.67;8.19
30949;HTU21D;17637;51.984;21.208;2022-07-21T00:21:38;18.66;8.61
30949;HTU21D;17637;51.984;21.208;2022-07-21T00:26:41;18.49;9.27
30949;HTU21D;17637;51.984;21.208;2022-07-21T00:31:46;18.38;9.53
30949;HTU21D;17637;51.984;21.208;2022-07-21T00:36:49;18.43;9.01
30949;HTU21D;17637;51.984;21.208;2022-07-21T00:41:52;18.30;9.59
30949;HTU21D;17637;51.984;21.208;2022-07-21T00:46:57;18.26;9.71
30949;HTU21D;17637;51.984;21.208;2022-07-21T00:52:01;18.24;9.66
30949;HTU21D;17637;51.984;21.208;2022-07-21T00:57:05;18.24;9.16
30949;HTU21D;17637;51.984;21.208;2022-07-21T01:02:10;18.20;9.42
30949;HTU21D;17637;51.984;21.208;2022-07-21T01:07:13;18.12;9.59
30949;HTU21D;17637;51.984;21.208;2022-07-21T01:12:17;18.18;9.89
30949;HTU21D;17637;51.984;21.208;2022-07-21T01:17:22;18.25;9.38
30949;HTU21D;17637;51.984;21.208;2022-07-21T01:22:27;18.39;8.67
30949;HTU21D;17637;51.984;21.208;2022-07-21T01:27:30;18.46;8.14
30949;HTU21D;17637;51.984;21.208;2022-07-21T01:32:34;18.51;7.78
30949;HTU21D;17637;51.984;21.208;2022-07-21T01:37:41;18.38;8.83
30949;HTU21D;17637;51.984;21.208;2022-07-21T01:42:45;18.24;9.75
30949;HTU21D;17637;51.984;21.208;2022-07-21T01:47:48;18.07;10.28
30949;HTU21D;17637;51.984;21.208;2022-07-21T01:52:53;17.80;11.13
30949;HTU21D;17637;51.984;21.208;2022-07-21T01:57:57;17.62;11.14
30949;HTU21D;17637;51.984;21.208;2022-07-21T02:03:03;17.51;11.27
30949;HTU21D;17637;51.984;21.208;2022-07-21T02:08:07;17.39;11.30
30949;HTU21D;17637;51.984;21.208;2022-07-21T02:13:10;17.25;11.46
30949;HTU21D;17637;51.984;21.208;2022-07-21T02:18:13;17.16;11.96
30949;HTU21D;17637;51.984;21.208;2022-07-21T02:23:18;17.00;11.30
30949;HTU21D;17637;51.984;21.208;2022-07-21T02:28:22;16.85;10.78
30949;HTU21D;17637;51.984;21.208;2022-07-21T02:33:25;16.86;10.67
30949;HTU21D;17637;51.984;21.208;2022-07-21T02:38:29;16.85;11.01
30949;HTU21D;17637;51.984;21.208;2022-07-21T02:43:33;16.77;10.78
30949;HTU21D;17637;51.984;21.208;2022-07-21T02:48:36;16.77;10.90
30949;HTU21D;17637;51.984;21.208;2022-07-21T02:53:40;16.73;10.35
30949;HTU21D;17637;51.984;21.208;2022-07-21T02:58:44;16.74;10.32
30949;HTU21D;17637;51.984;21.208;2022-07-21T03:03:47;16.84;10.03
30949;HTU21D;17637;51.984;21.208;2022-07-21T03:08:52;16.86;10.20
30949;HTU21D;17637;51.984;21.208;2022-07-21T03:13:56;16.77;10.02
30949;HTU21D;17637;51.984;21.208;2022-07-21T03:18:59;16.87;9.88
30949;HTU21D;17637;51.984;21.208;2022-07-21T03:24:05;17.02;10.30
30949;HTU21D;17637;51.984;21.208;2022-07-21T03:29:09;17.08;10.01
30949;HTU21D;17637;51.984;21.208;2022-07-21T03:34:12;17.39;9.99
30949;HTU21D;17637;51.984;21.208;2022-07-21T03:39:17;17.47;10.21
30949;HTU21D;17637;51.984;21.208;2022-07-21T03:44:20;17.59;9.99
30949;HTU21D;17637;51.984;21.208;2022-07-21T03:49:23;17.68;10.18
30949;HTU21D;17637;51.984;21.208;2022-07-21T03:54:28;17.80;10.30
30949;HTU21D;17637;51.984;21.208;2022-07-21T03:59:31;17.96;10.56
30949;HTU21D;17637;51.984;21.208;2022-07-21T04:04:34;18.09;10.55
30949;HTU21D;17637;51.984;21.208;2022-07-21T04:09:39;18.26;10.41
30949;HTU21D;17637;51.984;21.208;2022-07-21T04:14:42;18.48;10.61
30949;HTU21D;17637;51.984;21.208;2022-07-21T04:19:45;18.67;10.22
30949;HTU21D;17637;51.984;21.208;2022-07-21T04:24:50;18.77;10.07
30949;HTU21D;17637;51.984;21.208;2022-07-21T04:29:54;18.93;10.38
30949;HTU21D;17637;51.984;21.208;2022-07-21T04:34:57;19.07;10.72
30949;HTU21D;17637;51.984;21.208;2022-07-21T04:40:04;19.18;10.24
30949;HTU21D;17637;51.984;21.208;2022-07-21T04:45:09;19.30;10.14
30949;HTU21D;17637;51.984;21.208;2022-07-21T04:50:13;19.45;10.10
30949;HTU21D;17637;51.984;21.208;2022-07-21T04:55:19;19.56;9.82
30949;HTU21D;17637;51.984;21.208;2022-07-21T05:00:24;19.73;9.66
30949;HTU21D;17637;51.984;21.208;2022-07-21T05:05:27;20.27;7.47
30949;HTU21D;17637;51.984;21.208;2022-07-21T05:10:32;21.00;3.28
30949;HTU21D;17637;51.984;21.208;2022-07-21T05:15:35;21.59;-2.43
30949;HTU21D;17637;51.984;21.208;2022-07-21T05:20:38;22.12;-4.74
30949;HTU21D;17637;51.984;21.208;2022-07-21T05:25:43;22.35;115.73
30949;HTU21D;17637;51.984;21.208;2022-07-21T05:30:46;22.80;112.66
30949;HTU21D;17637;51.984;21.208;2022-07-21T05:35:49;23.16;109.04
30949;HTU21D;17637;51.984;21.208;2022-07-21T05:40:54;23.39;105.55
30949;HTU21D;17637;51.984;21.208;2022-07-21T05:45:58;23.74;104.02
30949;HTU21D;17637;51.984;21.208;2022-07-21T05:51:01;24.04;101.51
30949;HTU21D;17637;51.984;21.208;2022-07-21T05:56:06;24.03;98.29
30949;HTU21D;17637;51.984;21.208;2022-07-21T06:01:10;24.32;92.44
30949;HTU21D;17637;51.984;21.208;2022-07-21T06:06:17;24.60;93.08
30949;HTU21D;17637;51.984;21.208;2022-07-21T06:11:22;24.89;92.65
30949;HTU21D;17637;51.984;21.208;2022-07-21T06:16:26;24.69;86.58
30949;HTU21D;17637;51.984;21.208;2022-07-21T06:21:29;24.86;86.17
30949;HTU21D;17637;51.984;21.208;2022-07-21T06:26:34;25.07;89.51
30949;HTU21D;17637;51.984;21.208;2022-07-21T06:31:37;24.91;83.48
30949;HTU21D;17637;51.984;21.208;2022-07-21T06:36:40;25.00;83.60
30949;HTU21D;17637;51.984;21.208;2022-07-21T06:41:45;25.17;84.86
30949;HTU21D;17637;51.984;21.208;2022-07-21T06:46:49;25.22;84.60
30949;HTU21D;17637;51.984;21.208;2022-07-21T06:51:52;25.35;79.67
30949;HTU21D;17637;51.984;21.208;2022-07-21T06:56:57;25.31;79.28
30949;HTU21D;17637;51.984;21.208;2022-07-21T07:02:00;25.49;78.28
30949;HTU21D;17637;51.984;21.208;2022-07-21T07:07:04;25.53;80.66
30949;HTU21D;17637;51.984;21.208;2022-07-21T07:12:09;25.66;81.43
30949;HTU21D;17637;51.984;21.208;2022-07-21T07:17:32;25.73;78.12
30949;HTU21D;17637;51.984;21.208;2022-07-21T07:22:35;25.83;75.81
30949;HTU21D;17637;51.984;21.208;2022-07-21T07:27:39;25.22;77.64
30949;HTU21D;17637;51.984;21.208;2022-07-21T07:32:43;25.84;77.69
30949;HTU21D;17637;51.984;21.208;2022-07-21T07:37:46;26.01;77.82
30949;HTU21D;17637;51.984;21.208;2022-07-21T07:42:51;26.12;80.85
30949;HTU21D;17637;51.984;21.208;2022-07-21T07:47:54;26.30;75.50
30949;HTU21D;17637;51.984;21.208;2022-07-21T07:52:57;26.26;72.58
30949;HTU21D;17637;51.984;21.208;2022-07-21T07:58:02;26.43;77.92
30949;HTU21D;17637;51.984;21.208;2022-07-21T08:03:05;26.55;74.67
30949;HTU21D;17637;51.984;21.208;2022-07-21T08:08:09;26.42;71.27
30949;HTU21D;17637;51.984;21.208;2022-07-21T08:13:15;26.54;72.19
30949;HTU21D;17637;51.984;21.208;2022-07-21T08:18:18;26.64;73.50
30949;HTU21D;17637;51.984;21.208;2022-07-21T08:23:22;26.67;74.20
30949;HTU21D;17637;51.984;21.208;2022-07-21T08:28:26;26.75;71.74
30949;HTU21D;17637;51.984;21.208;2022-07-21T08:33:29;26.97;73.42
30949;HTU21D;17637;51.984;21.208;2022-07-21T08:38:33;26.92;70.90
30949;HTU21D;17637;51.984;21.208;2022-07-21T08:43:37;27.09;73.37
30949;HTU21D;17637;51.984;21.208;2022-07-21T08:48:42;26.79;67.04
30949;HTU21D;17637;51.984;21.208;2022-07-21T08:53:45;27.23;72.23
30949;HTU21D;17637;51.984;21.208;2022-07-21T08:58:50;27.09;68.37
30949;HTU21D;17637;51.984;21.208;2022-07-21T09:03:54;27.30;67.99
30949;HTU21D;17637;51.984;21.208;2022-07-21T09:08:58;27.50;72.25
30949;HTU21D;17637;51.984;21.208;2022-07-21T09:14:07;27.71;67.27
30949;HTU21D;17637;51.984;21.208;2022-07-21T09:19:16;27.28;60.99
30949;HTU21D;17637;51.984;21.208;2022-07-21T09:24:22;27.63;61.74
30949;HTU21D;17637;51.984;21.208;2022-07-21T09:29:40;27.70;59.09
30949;HTU21D;17637;51.984;21.208;2022-07-21T09:34:44;27.63;58.22
30949;HTU21D;17637;51.984;21.208;2022-07-21T09:39:50;27.59;60.54
30949;HTU21D;17637;51.984;21.208;2022-07-21T09:44:56;27.65;58.69
30949;HTU21D;17637;51.984;21.208;2022-07-21T09:50:00;27.85;61.65
30949;HTU21D;17637;51.984;21.208;2022-07-21T09:55:23;28.06;63.68
30949;HTU21D;17637;51.984;21.208;2022-07-21T10:00:28;28.08;63.85
30949;HTU21D;17637;51.984;21.208;2022-07-21T10:05:31;28.27;62.05
30949;HTU21D;17637;51.984;21.208;2022-07-21T10:10:35;28.16;56.65
30949;HTU21D;17637;51.984;21.208;2022-07-21T10:16:01;28.39;59.20
30949;HTU21D;17637;51.984;21.208;2022-07-21T10:21:10;28.13;57.44
30949;HTU21D;17637;51.984;21.208;2022-07-21T10:26:14;28.34;61.58
30949;HTU21D;17637;51.984;21.208;2022-07-21T10:31:21;28.17;59.35
30949;HTU21D;17637;51.984;21.208;2022-07-21T10:36:41;28.42;59.61
30949;HTU21D;17637;51.984;21.208;2022-07-21T10:41:46;28.23;56.16
30949;HTU21D;17637;51.984;21.208;2022-07-21T10:46:59;28.45;61.00
30949;HTU21D;17637;51.984;21.208;2022-07-21T10:52:02;28.39;56.52
30949;HTU21D;17637;51.984;21.208;2022-07-21T10:57:27;28.21;58.99
30949;HTU21D;17637;51.984;21.208;2022-07-21T11:02:33;28.63;60.41
30949;HTU21D;17637;51.984;21.208;2022-07-21T11:08:09;28.82;62.70
30949;HTU21D;17637;51.984;21.208;2022-07-21T11:13:13;28.71;57.83
30949;HTU21D;17637;51.984;21.208;2022-07-21T11:18:19;28.88;57.51
30949;HTU21D;17637;51.984;21.208;2022-07-21T11:23:22;28.97;58.68
30949;HTU21D;17637;51.984;21.208;2022-07-21T11:28:37;28.77;60.92
30949;HTU21D;17637;51.984;21.208;2022-07-21T11:33:45;28.20;58.53
30949;HTU21D;17637;51.984;21.208;2022-07-21T11:38:57;28.71;57.98
30949;HTU21D;17637;51.984;21.208;2022-07-21T11:44:01;28.94;62.67
30949;HTU21D;17637;51.984;21.208;2022-07-21T11:49:05;29.02;61.09
30949;HTU21D;17637;51.984;21.208;2022-07-21T11:54:19;29.23;61.62
30949;HTU21D;17637;51.984;21.208;2022-07-21T11:59:23;29.27;62.70
30949;HTU21D;17637;51.984;21.208;2022-07-21T12:04:36;29.26;64.26
30949;HTU21D;17637;51.984;21.208;2022-07-21T12:09:42;29.39;62.79
30949;HTU21D;17637;51.984;21.208;2022-07-21T12:14:53;29.14;58.53
30949;HTU21D;17637;51.984;21.208;2022-07-21T12:20:07;29.26;58.64
30949;HTU21D;17637;51.984;21.208;2022-07-21T12:25:16;29.39;62.89
30949;HTU21D;17637;51.984;21.208;2022-07-21T12:30:34;29.39;57.13
30949;HTU21D;17637;51.984;21.208;2022-07-21T12:35:42;29.35;58.28
30949;HTU21D;17637;51.984;21.208;2022-07-21T12:40:55;29.12;57.20
30949;HTU21D;17637;51.984;21.208;2022-07-21T12:46:28;29.27;57.16
30949;HTU21D;17637;51.984;21.208;2022-07-21T12:51:36;29.29;57.71
30949;HTU21D;17637;51.984;21.208;2022-07-21T12:56:41;29.46;59.32
30949;HTU21D;17637;51.984;21.208;2022-07-21T13:01:45;29.59;63.40
30949;HTU21D;17637;51.984;21.208;2022-07-21T13:06:53;29.62;62.78
30949;HTU21D;17637;51.984;21.208;2022-07-21T13:12:00;29.62;60.48
30949;HTU21D;17637;51.984;21.208;2022-07-21T13:17:11;29.50;57.64
30949;HTU21D;17637;51.984;21.208;2022-07-21T13:22:19;29.43;57.20
30949;HTU21D;17637;51.984;21.208;2022-07-21T13:27:24;29.58;56.40
30949;HTU21D;17637;51.984;21.208;2022-07-21T13:32:29;29.45;58.11
30949;HTU21D;17637;51.984;21.208;2022-07-21T13:37:36;29.48;57.69
30949;HTU21D;17637;51.984;21.208;2022-07-21T13:42:42;29.75;61.02
30949;HTU21D;17637;51.984;21.208;2022-07-21T13:48:07;29.87;63.47
30949;HTU21D;17637;51.984;21.208;2022-07-21T13:53:13;29.96;63.65
30949;HTU21D;17637;51.984;21.208;2022-07-21T13:58:16;29.95;60.12
30949;HTU21D;17637;51.984;21.208;2022-07-21T14:03:21;30.04;62.82
30949;HTU21D;17637;51.984;21.208;2022-07-21T14:08:28;30.05;61.29
30949;HTU21D;17637;51.984;21.208;2022-07-21T14:13:33;30.13;63.70
30949;HTU21D;17637;51.984;21.208;2022-07-21T14:18:37;30.06;58.98
30949;HTU21D;17637;51.984;21.208;2022-07-21T14:23:43;30.10;65.79
30949;HTU21D;17637;51.984;21.208;2022-07-21T14:28:47;30.18;62.57
30949;HTU21D;17637;51.984;21.208;2022-07-21T14:33:52;30.22;62.18
30949;HTU21D;17637;51.984;21.208;2022-07-21T14:39:02;30.19;63.93
30949;HTU21D;17637;51.984;21.208;2022-07-21T14:44:06;30.19;60.39
30949;HTU21D;17637;51.984;21.208;2022-07-21T14:49:10;30.19;63.55
30949;HTU21D;17637;51.984;21.208;2022-07-21T14:54:16;30.26;64.47
30949;HTU21D;17637;51.984;21.208;2022-07-21T14:59:20;30.20;62.86
30949;HTU21D;17637;51.984;21.208;2022-07-21T15:04:24;30.07;60.85
30949;HTU21D;17637;51.984;21.208;2022-07-21T15:09:31;30.19;61.10
30949;HTU21D;17637;51.984;21.208;2022-07-21T15:14:35;30.36;62.30
30949;HTU21D;17637;51.984;21.208;2022-07-21T15:19:38;30.18;62.15
30949;HTU21D;17637;51.984;21.208;2022-07-21T15:24:44;30.24;59.52
30949;HTU21D;17637;51.984;21.208;2022-07-21T15:29:48;30.20;61.96
30949;HTU21D;17637;51.984;21.208;2022-07-21T15:34:52;30.32;61.12
30949;HTU21D;17637;51.984;21.208;2022-07-21T15:39:59;30.27;60.30
30949;HTU21D;17637;51.984;21.208;2022-07-21T15:45:04;30.37;59.92
30949;HTU21D;17637;51.984;21.208;2022-07-21T15:50:08;30.39;63.70
30949;HTU21D;17637;51.984;21.208;2022-07-21T15:55:17;30.48;60.91
30949;HTU21D;17637;51.984;21.208;2022-07-21T16:00:20;30.20;59.10
30949;HTU21D;17637;51.984;21.208;2022-07-21T16:05:26;30.26;60.25
30949;HTU21D;17637;51.984;21.208;2022-07-21T16:10:31;30.45;63.44
30949;HTU21D;17637;51.984;21.208;2022-07-21T16:15:35;30.56;61.70
30949;HTU21D;17637;51.984;21.208;2022-07-21T16:20:41;30.39;60.01
30949;HTU21D;17637;51.984;21.208;2022-07-21T16:25:46;30.47;61.88
30949;HTU21D;17637;51.984;21.208;2022-07-21T16:30:50;30.47;61.43
30949;HTU21D;17637;51.984;21.208;2022-07-21T16:35:55;30.98;61.79
30949;HTU21D;17637;51.984;21.208;2022-07-21T16:41:02;31.75;58.68
30949;HTU21D;17637;51.984;21.208;2022-07-21T16:46:06;32.34;59.03
30949;HTU21D;17637;51.984;21.208;2022-07-21T16:51:10;32.66;57.62
30949;HTU21D;17637;51.984;21.208;2022-07-21T16:56:16;32.93;58.59
30949;HTU21D;17637;51.984;21.208;2022-07-21T17:01:20;32.90;58.22
30949;HTU21D;17637;51.984;21.208;2022-07-21T17:06:50;32.93;58.61
30949;HTU21D;17637;51.984;21.208;2022-07-21T17:11:56;32.71;58.03
30949;HTU21D;17637;51.984;21.208;2022-07-21T17:17:00;32.10;58.37
30949;HTU21D;17637;51.984;21.208;2022-07-21T17:22:05;31.34;64.30
30949;HTU21D;17637;51.984;21.208;2022-07-21T17:27:11;30.67;64.80
30949;HTU21D;17637;51.984;21.208;2022-07-21T17:32:15;30.09;64.42
30949;HTU21D;17637;51.984;21.208;2022-07-21T17:37:22;29.68;66.60
30949;HTU21D;17637;51.984;21.208;2022-07-21T17:42:30;29.22;70.40
30949;HTU21D;17637;51.984;21.208;2022-07-21T17:47:34;28.82;71.40
30949;HTU21D;17637;51.984;21.208;2022-07-21T17:52:42;28.62;72.99
30949;HTU21D;17637;51.984;21.208;2022-07-21T17:57:48;28.33;74.88
30949;HTU21D;17637;51.984;21.208;2022-07-21T18:03:10;27.99;77.76
30949;HTU21D;17637;51.984;21.208;2022-07-21T18:08:14;27.78;78.55
30949;HTU21D;17637;51.984;21.208;2022-07-21T18:13:20;27.58;77.63
30949;HTU21D;17637;51.984;21.208;2022-07-21T18:18:25;27.23;80.18
30949;HTU21D;17637;51.984;21.208;2022-07-21T18:23:31;26.87;83.69
30949;HTU21D;17637;51.984;21.208;2022-07-21T18:28:38;26.46;86.51
30949;HTU21D;17637;51.984;21.208;2022-07-21T18:33:43;26.31;86.70
30949;HTU21D;17637;51.984;21.208;2022-07-21T18:38:47;25.99;88.94
30949;HTU21D;17637;51.984;21.208;2022-07-21T18:43:53;25.62;94.53
30949;HTU21D;17637;51.984;21.208;2022-07-21T18:48:59;25.30;96.62
30949;HTU21D;17637;51.984;21.208;2022-07-21T18:54:06;25.16;97.71
30949;HTU21D;17637;51.984;21.208;2022-07-21T18:59:20;24.89;101.25
30949;HTU21D;17637;51.984;21.208;2022-07-21T19:04:26;24.69;103.25
30949;HTU21D;17637;51.984;21.208;2022-07-21T19:09:31;24.49;105.64
30949;HTU21D;17637;51.984;21.208;2022-07-21T19:14:44;24.28;108.17
30949;HTU21D;17637;51.984;21.208;2022-07-21T19:19:49;24.12;112.67
30949;HTU21D;17637;51.984;21.208;2022-07-21T19:24:56;23.95;114.08
30949;HTU21D;17637;51.984;21.208;2022-07-21T19:30:07;23.76;115.50
30949;HTU21D;17637;51.984;21.208;2022-07-21T19:35:15;23.60;116.31
30949;HTU21D;17637;51.984;21.208;2022-07-21T19:40:22;23.47;117.69
30949;HTU21D;17637;51.984;21.208;2022-07-21T19:45:36;23.26;-4.40
30949;HTU21D;17637;51.984;21.208;2022-07-21T19:50:42;23.16;-3.81
30949;HTU21D;17637;51.984;21.208;2022-07-21T19:55:52;23.09;-4.60
30949;HTU21D;17637;51.984;21.208;2022-07-21T20:01:04;22.97;-3.62
30949;HTU21D;17637;51.984;21.208;2022-07-21T20:06:16;22.79;-0.58
30949;HTU21D;17637;51.984;21.208;2022-07-21T20:11:43;22.72;-0.13
30949;HTU21D;17637;51.984;21.208;2022-07-21T20:16:56;22.64;-0.09
30949;HTU21D;17637;51.984;21.208;2022-07-21T20:22:21;22.44;2.50
30949;HTU21D;17637;51.984;21.208;2022-07-21T20:27:29;22.42;2.64
30949;HTU21D;17637;51.984;21.208;2022-07-21T20:32:38;22.32;4.62
30949;HTU21D;17637;51.984;21.208;2022-07-21T20:37:45;22.26;4.03
30949;HTU21D;17637;51.984;21.208;2022-07-21T20:42:52;22.11;6.20
30949;HTU21D;17637;51.984;21.208;2022-07-21T20:48:10;21.97;8.12
30949;HTU21D;17637;51.984;21.208;2022-07-21T20:53:18;21.87;8.31
30949;HTU21D;17637;51.984;21.208;2022-07-21T20:58:35;21.81;7.69
30949;HTU21D;17637;51.984;21.208;2022-07-21T21:03:47;21.75;7.28
30949;HTU21D;17637;51.984;21.208;2022-07-21T21:08:55;21.64;7.46
30949;HTU21D;17637;51.984;21.208;2022-07-21T21:14:02;21.48;9.53
30949;HTU21D;17637;51.984;21.208;2022-07-21T21:19:15;21.36;10.33
30949;HTU21D;17637;51.984;21.208;2022-07-21T21:24:21;21.30;9.51
30949;HTU21D;17637;51.984;21.208;2022-07-21T21:29:31;21.28;9.63
30949;HTU21D;17637;51.984;21.208;2022-07-21T21:34:41;21.15;10.32
30949;HTU21D;17637;51.984;21.208;2022-07-21T21:40:02;21.05;10.97
30949;HTU21D;17637;51.984;21.208;2022-07-21T21:45:12;21.01;11.02
30949;HTU21D;17637;51.984;21.208;2022-07-21T21:50:20;20.84;11.64
30949;HTU21D;17637;51.984;21.208;2022-07-21T21:55:26;20.78;11.68
30949;HTU21D;17637;51.984;21.208;2022-07-21T22:00:31;20.79;11.03
30949;HTU21D;17637;51.984;21.208;2022-07-21T22:05:39;20.75;11.27
30949;HTU21D;17637;51.984;21.208;2022-07-21T22:10:46;20.70;11.73
30949;HTU21D;17637;51.984;21.208;2022-07-21T22:15:53;20.53;12.64
30949;HTU21D;17637;51.984;21.208;2022-07-21T22:20:58;20.45;12.20
30949;HTU21D;17637;51.984;21.208;2022-07-21T22:26:02;20.43;12.70
30949;HTU21D;17637;51.984;21.208;2022-07-21T22:31:06;20.36;12.55
30949;HTU21D;17637;51.984;21.208;2022-07-21T22:36:13;20.28;12.69
30949;HTU21D;17637;51.984;21.208;2022-07-21T22:41:16;20.19;12.87
30949;HTU21D;17637;51.984;21.208;2022-07-21T22:46:19;20.12;13.18
30949;HTU21D;17637;51.984;21.208;2022-07-21T22:51:24;20.05;13.11
30949;HTU21D;17637;51.984;21.208;2022-07-21T22:56:26;20.03;12.65
30949;HTU21D;17637;51.984;21.208;2022-07-21T23:01:30;20.00;12.60
30949;HTU21D;17637;51.984;21.208;2022-07-21T23:06:35;19.99;12.65
30949;HTU21D;17637;51.984;21.208;2022-07-21T23:11:38;19.91;12.78
30949;HTU21D;17637;51.984;21.208;2022-07-21T23:16:41;19.95;12.81
30949;HTU21D;17637;51.984;21.208;2022-07-21T23:21:46;20.05;12.34
30949;HTU21D;17637;51.984;21.208;2022-07-21T23:26:49;20.14;12.08
30949;HTU21D;17637;51.984;21.208;2022-07-21T23:31:52;20.15;11.95
30949;HTU21D;17637;51.984;21.208;2022-07-21T23:36:57;20.10;11.30
30949;HTU21D;17637;51.984;21.208;2022-07-21T23:42:00;20.05;11.19
30949;HTU21D;17637;51.984;21.208;2022-07-21T23:47:03;19.99;10.88
30949;HTU21D;17637;51.984;21.208;2022-07-21T23:52:08;20.05;11.27
30949;HTU21D;17637;51.984;21.208;2022-07-21T23:57:11;20.06;10.59
